Nearby METAR Reports

 

KCOS - Colorado Springs, Colorado, USA
Distance from station: S 6mi, 9km
Updated: Wed, 08-Feb-2023 11:54am MST
Few Clouds
Few Clouds
 Wind from S
Wind: S 9 mph , 15 km/h
Temperature: 46°F , 8°C
Wind Chill: 41°F , 5°C
Dew Point: 16°F , -9°C
Humidity: 29%
Barometer: 30.00 inHg , 1015.9 hPa
Clouds: Few Clouds
Visibility: 10 miles , 16 km
Cloud details: Few Clouds 12000 ft
Few Clouds 20000 ft
2023/02/08 18:54 KCOS 081854Z 19008KT 10SM FEW120 FEW200 08/M09 A3000 RMK AO2 SLP166 T00831094
KAFF - Usaf Academy/Cos, Colorado, USA
Distance from station: NW 7mi, 12km
Updated: Wed, 08-Feb-2023 11:55am MST
Clear
Clear
 Wind from NE
Wind: NE 8 mph , 13 km/h
Temperature: 48°F , 9°C
Wind Chill: 44°F , 7°C
Dew Point: 9°F , -13°C
Humidity: 20%
Barometer: 29.96 inHg , 1014.6 hPa
Clouds: Clear
Visibility: 10 miles , 16 km
2023/02/08 18:55 KAFF 081855Z AUTO 05007KT 10SM CLR 09/M13 A2996 RMK AO2 SLP165 T00861131
 
KFLY - Co Spngs Meadow, Colorado, USA
Distance from station: ENE 8mi, 13km
Updated: Wed, 08-Feb-2023 12:15pm MST
Clear
Clear
 Wind from NNE
Wind: NNE 10 mph , 17 km/h, Gust: 21 mph , 33 km/h
Temperature: 45°F , 7°C
Wind Chill: 40°F , 4°C
Dew Point: 10°F , -12°C
Humidity: 25%
Barometer: 30.01 inHg , 1016.3 hPa
Clouds: Clear
Visibility: 10 miles , 16 km
2023/02/08 19:15 KFLY 081915Z AUTO 03009G18KT 10SM CLR 07/M12 A3001 RMK AO2 T00731116
KFCS - Fort Carson, Colorado, USA
Distance from station: S 17mi, 27km
Updated: Wed, 08-Feb-2023 11:55am MST
Clear
Clear
 Wind from calm
Wind: Calm
Temperature: 45°F , 7°C
Dew Point: 10°F , -12°C
Humidity: 25%
Barometer: 29.98 inHg , 1015.2 hPa
Clouds: Clear
Visibility: 10 miles , 16 km
2023/02/08 18:55 KFCS 081855Z AUTO 00000KT 10SM CLR 07/M12 A2998 RMK AO2 SLP182 T00691118 $
 
KMNH - Monument/Elbert, Colorado, USA
Distance from station: N 22mi, 35km
Updated: Wed, 08-Feb-2023 12:15pm MST
Clear
Clear
 Wind from calm
Wind: Calm
Temperature: 37°F , 3°C
Dew Point: 12°F , -11°C
Humidity: 35%
Barometer: 30.01 inHg , 1016.3 hPa
Clouds: Clear
Visibility: 10 miles , 16 km
2023/02/08 19:15 KMNH 081915Z AUTO 00000KT 10SM CLR 03/M11 A3001 RMK AO2
K1V6 - Canon City, Colorado, USA
Distance from station: SSW 39mi, 62km
Updated: Wed, 08-Feb-2023 12:15pm MST
Clear
Clear
 Wind from NNW
Wind: NNW 8 mph , 13 km/h
Temperature: 55°F , 13°C
Dew Point: 14°F , -10°C
Humidity: 19%
Barometer: 29.96 inHg , 1014.6 hPa
Clouds: Clear
Visibility: 10 miles , 16 km
2023/02/08 19:15 K1V6 081915Z AUTO 33007KT 291V351 10SM CLR 13/M10 A2996 RMK AO2
 
KPUB - Pueblo, Colorado, USA
Distance from station: SSE 44mi, 71km
Updated: Wed, 08-Feb-2023 11:53am MST
Clear
Clear
 Wind from SW
Wind: SW 5 mph , 7 km/h
Temperature: 46°F , 8°C
Wind Chill: 44°F , 7°C
Dew Point: 16°F , -9°C
Humidity: 29%
Barometer: 30.01 inHg , 1016.3 hPa
Clouds: Clear
Visibility: 10 miles , 16 km
2023/02/08 18:53 KPUB 081853Z 22004KT 10SM CLR 08/M09 A3001 RMK AO2 SLP172 T00831089
KAPA - Denver/Arapahoe, Colorado, USA
Distance from station: N 47mi, 75km
Updated: Wed, 08-Feb-2023 11:53am MST
Few Clouds
Few Clouds
 Wind from NNW
Wind: NNW 7 mph , 11 km/h
Temperature: 46°F , 8°C
Wind Chill: 42°F , 6°C
Dew Point: 16°F , -9°C
Humidity: 29%
Barometer: 29.99 inHg , 1015.6 hPa
Clouds: Few Clouds
Visibility: 10 miles , 16 km
Cloud details: Few Clouds 8000 ft
Few Clouds 13000 ft
Few Clouds 20000 ft
2023/02/08 18:53 KAPA 081853Z 33006KT 10SM FEW080 FEW130 FEW200 08/M09 A2999 RMK AO2 SLP162 ACSL DSNT W OMTNS T00831089